createdAt,value
2022-10-27T00:01:37.034Z,16.70
2022-10-27T00:04:07.435Z,16.80
2022-10-27T00:06:38.811Z,16.60
2022-10-27T00:09:09.480Z,16.80
2022-10-27T00:11:39.667Z,16.80
2022-10-27T00:14:09.590Z,16.80
2022-10-27T00:16:39.608Z,16.70
2022-10-27T00:19:09.558Z,16.80
2022-10-27T00:21:39.539Z,16.70
2022-10-27T00:24:09.622Z,16.70
2022-10-27T00:26:39.587Z,16.70
2022-10-27T00:29:09.809Z,16.70
2022-10-27T00:31:39.889Z,16.60
2022-10-27T00:34:09.847Z,16.80
2022-10-27T00:36:39.919Z,16.80
2022-10-27T00:39:11.391Z,16.70
2022-10-27T00:41:42.706Z,16.80
2022-10-27T00:44:31.678Z,16.70
2022-10-27T00:47:07.691Z,16.70
2022-10-27T00:49:45.543Z,16.60
2022-10-27T00:52:35.256Z,16.60
2022-10-27T00:55:40.573Z,16.80
2022-10-27T00:58:12.992Z,16.80
2022-10-27T01:00:43.570Z,16.80
2022-10-27T01:03:14.647Z,16.90
2022-10-27T01:05:44.669Z,17.00
2022-10-27T01:08:14.733Z,17.00
2022-10-27T01:10:44.679Z,17.10
2022-10-27T01:13:15.104Z,17.10
2022-10-27T01:16:21.273Z,17.20
2022-10-27T01:19:28.372Z,17.20
2022-10-27T01:22:09.873Z,17.30
2022-10-27T01:25:12.190Z,17.30
2022-10-27T01:28:00.801Z,17.40
2022-10-27T01:30:32.295Z,17.40
2022-10-27T01:33:24.650Z,17.50
2022-10-27T01:35:57.853Z,17.60
2022-10-27T01:38:33.371Z,17.90
2022-10-27T01:41:09.986Z,17.80
2022-10-27T01:43:41.444Z,17.10
2022-10-27T01:46:12.508Z,17.70
2022-10-27T01:48:42.603Z,16.80
2022-10-27T01:51:13.981Z,18.00
2022-10-27T01:53:47.892Z,18.50
2022-10-27T01:56:33.776Z,18.80
2022-10-27T01:59:33.426Z,18.90
2022-10-27T02:02:12.515Z,18.90
2022-10-27T02:05:13.184Z,19.00
2022-10-27T02:07:56.691Z,18.70
2022-10-27T02:10:29.226Z,18.70
2022-10-27T02:12:59.523Z,18.60
2022-10-27T02:15:40.899Z,18.50
2022-10-27T02:18:14.451Z,18.80
2022-10-27T02:20:47.352Z,18.60
2022-10-27T02:23:19.510Z,18.70
2022-10-27T02:26:30.936Z,18.60
2022-10-27T02:29:01.676Z,18.40
2022-10-27T02:31:35.568Z,18.50
2022-10-27T02:34:06.757Z,18.40
2022-10-27T02:36:37.759Z,18.50
2022-10-27T02:39:07.915Z,18.20
2022-10-27T02:41:38.603Z,17.90
2022-10-27T02:44:08.852Z,18.10
2022-10-27T02:46:39.121Z,18.10
2022-10-27T02:49:09.277Z,18.10
2022-10-27T02:51:39.356Z,18.00
2022-10-27T02:54:09.913Z,18.10
2022-10-27T02:56:40.697Z,18.00
2022-10-27T02:59:11.072Z,18.10
2022-10-27T03:01:41.582Z,18.00
2022-10-27T03:04:11.670Z,17.90
2022-10-27T03:06:41.662Z,18.10
2022-10-27T03:09:11.723Z,17.90
2022-10-27T03:11:45.391Z,18.00
2022-10-27T03:14:16.705Z,18.00
2022-10-27T03:16:46.728Z,17.90
2022-10-27T03:19:16.773Z,17.80
2022-10-27T03:21:47.436Z,17.80
2022-10-27T03:24:17.942Z,17.70
2022-10-27T03:26:48.283Z,17.50
2022-10-27T03:29:18.495Z,17.50
2022-10-27T03:31:48.888Z,17.50
2022-10-27T03:34:20.984Z,17.40
2022-10-27T03:36:52.451Z,17.30
2022-10-27T03:39:22.728Z,17.40
2022-10-27T03:41:53.046Z,17.40
2022-10-27T03:44:23.747Z,17.30
2022-10-27T03:46:53.917Z,17.30
2022-10-27T03:49:24.503Z,17.30
2022-10-27T03:51:55.002Z,17.30
2022-10-27T03:54:25.393Z,17.20
2022-10-27T03:56:55.670Z,17.20
2022-10-27T03:59:26.293Z,17.30
2022-10-27T04:01:56.556Z,17.20
2022-10-27T04:04:26.555Z,17.20
2022-10-27T04:06:56.803Z,17.20
2022-10-27T04:09:26.865Z,17.20
2022-10-27T04:11:56.864Z,17.30
2022-10-27T04:14:28.640Z,17.30
2022-10-27T04:16:59.434Z,17.40
2022-10-27T04:19:29.826Z,17.30
2022-10-27T04:22:00.180Z,17.40
2022-10-27T04:24:31.039Z,17.40
2022-10-27T04:27:02.212Z,17.30
2022-10-27T04:29:33.072Z,17.40
2022-10-27T04:32:04.495Z,17.40
2022-10-27T04:34:34.876Z,17.40
2022-10-27T04:37:06.136Z,17.30
2022-10-27T04:39:36.374Z,17.30
2022-10-27T04:42:06.752Z,17.20
2022-10-27T04:44:37.440Z,17.20
2022-10-27T04:47:07.546Z,17.20
2022-10-27T04:49:37.871Z,17.20
2022-10-27T04:52:08.096Z,17.10
2022-10-27T04:54:39.412Z,17.10
2022-10-27T04:57:09.922Z,17.10
2022-10-27T04:59:40.502Z,17.10
2022-10-27T05:02:10.593Z,17.10
2022-10-27T05:04:42.281Z,17.10
2022-10-27T05:07:12.567Z,17.10
2022-10-27T05:09:42.985Z,17.10
2022-10-27T05:12:14.043Z,17.10
2022-10-27T05:14:44.244Z,17.10
2022-10-27T05:17:19.068Z,17.10
2022-10-27T05:19:50.425Z,17.10
2022-10-27T05:22:21.350Z,17.10
2022-10-27T05:24:52.783Z,17.10
2022-10-27T05:27:23.224Z,17.10
2022-10-27T05:29:53.287Z,17.10
2022-10-27T05:32:23.377Z,17.10
2022-10-27T05:34:53.532Z,17.10
2022-10-27T05:37:23.775Z,17.10
2022-10-27T05:39:54.145Z,17.10
2022-10-27T05:45:01.369Z,17.10
2022-10-27T05:47:31.848Z,17.10
2022-10-27T05:50:02.085Z,17.20
2022-10-27T05:52:32.341Z,17.10
2022-10-27T05:55:02.815Z,17.20
2022-10-27T05:57:33.229Z,17.20
2022-10-27T06:00:03.474Z,17.20
2022-10-27T06:02:33.998Z,17.30
2022-10-27T06:05:04.535Z,17.30
2022-10-27T06:07:34.520Z,17.30
2022-10-27T06:10:06.025Z,17.40
2022-10-27T06:12:36.337Z,17.50
2022-10-27T06:15:06.976Z,17.50
2022-10-27T06:17:37.265Z,17.50
2022-10-27T06:20:07.569Z,17.60
2022-10-27T06:22:37.467Z,17.60
2022-10-27T06:25:07.897Z,17.70
2022-10-27T06:27:38.290Z,17.70
2022-10-27T06:30:08.967Z,17.70
2022-10-27T06:32:40.719Z,17.70
2022-10-27T06:35:11.688Z,17.70
2022-10-27T06:37:42.465Z,17.80
2022-10-27T06:40:13.646Z,17.80
2022-10-27T06:42:55.382Z,17.80
2022-10-27T06:45:34.089Z,17.80
2022-10-27T06:48:04.160Z,17.80
2022-10-27T06:50:34.271Z,17.90
2022-10-27T06:53:04.493Z,17.90
2022-10-27T06:55:34.453Z,17.90
2022-10-27T06:58:04.503Z,17.90
2022-10-27T07:00:35.076Z,17.90
2022-10-27T07:03:12.222Z,17.90
2022-10-27T07:05:42.590Z,18.00
2022-10-27T07:08:12.825Z,18.00
2022-10-27T07:10:42.989Z,18.10
2022-10-27T07:13:13.037Z,18.10
2022-10-27T07:15:43.007Z,18.10
2022-10-27T07:18:13.133Z,18.00
2022-10-27T07:20:43.197Z,18.00
2022-10-27T07:23:13.349Z,18.00
2022-10-27T07:28:13.585Z,18.00
2022-10-27T07:30:45.655Z,18.00
2022-10-27T07:33:15.988Z,18.00
2022-10-27T07:35:49.320Z,18.00
2022-10-27T07:38:19.915Z,17.90
2022-10-27T07:40:50.103Z,17.90
2022-10-27T07:43:23.831Z,17.90
2022-10-27T07:45:54.253Z,17.80
2022-10-27T07:48:24.657Z,17.80
2022-10-27T07:50:56.421Z,17.80
2022-10-27T07:53:27.225Z,17.70
2022-10-27T07:55:58.129Z,17.70
2022-10-27T07:58:29.994Z,17.60
2022-10-27T08:01:02.210Z,17.60
2022-10-27T08:03:33.688Z,17.60
2022-10-27T08:06:04.419Z,17.50
2022-10-27T08:08:34.422Z,17.50
2022-10-27T08:11:04.848Z,17.50
2022-10-27T08:13:35.478Z,17.50
2022-10-27T08:16:05.593Z,17.50
2022-10-27T08:18:36.068Z,17.60
2022-10-27T08:21:07.069Z,17.60
2022-10-27T08:23:37.309Z,17.50
2022-10-27T08:26:07.475Z,17.50
2022-10-27T08:28:38.275Z,17.60
2022-10-27T08:31:09.853Z,17.60
2022-10-27T08:33:40.033Z,17.60
2022-10-27T08:36:11.601Z,17.60
2022-10-27T08:38:41.677Z,17.70
2022-10-27T08:41:28.291Z,17.70
2022-10-27T08:44:06.741Z,17.70
2022-10-27T08:46:51.554Z,17.70
2022-10-27T08:49:44.774Z,17.70
2022-10-27T08:52:39.742Z,17.70
2022-10-27T08:55:15.899Z,17.70
2022-10-27T08:58:20.862Z,17.80
2022-10-27T09:01:03.406Z,17.80
2022-10-27T09:04:08.086Z,17.80
2022-10-27T09:06:48.504Z,17.80
2022-10-27T09:09:41.465Z,17.90
2022-10-27T09:12:22.974Z,17.90
2022-10-27T09:15:22.272Z,17.90
2022-10-27T09:18:16.414Z,17.90
2022-10-27T09:20:55.315Z,17.90
2022-10-27T09:23:31.837Z,17.90
2022-10-27T09:26:02.069Z,17.90
2022-10-27T09:28:38.023Z,18.00
2022-10-27T09:31:10.214Z,18.00
2022-10-27T09:33:55.573Z,18.00
2022-10-27T09:36:25.853Z,18.00
2022-10-27T09:38:56.021Z,18.00
2022-10-27T09:41:26.307Z,18.10
2022-10-27T09:43:58.735Z,18.00
2022-10-27T09:46:35.323Z,18.00
2022-10-27T09:49:10.791Z,18.10
2022-10-27T09:51:48.428Z,18.10
2022-10-27T09:54:57.069Z,18.10
2022-10-27T09:57:34.564Z,18.10
2022-10-27T10:00:10.392Z,18.10
2022-10-27T10:02:47.189Z,18.10
2022-10-27T10:05:26.527Z,18.10
2022-10-27T10:08:19.038Z,18.20
2022-10-27T10:11:23.111Z,18.20
2022-10-27T10:14:04.122Z,18.20
2022-10-27T10:16:46.476Z,18.20
2022-10-27T10:19:26.374Z,18.20
2022-10-27T10:22:01.863Z,18.20
2022-10-27T10:24:35.412Z,18.20
2022-10-27T10:27:07.409Z,18.20
2022-10-27T10:29:45.991Z,18.20
2022-10-27T10:32:28.151Z,18.20
2022-10-27T10:35:11.122Z,18.20
2022-10-27T10:37:55.331Z,18.20
2022-10-27T10:40:27.572Z,18.20
2022-10-27T10:43:11.728Z,18.20
2022-10-27T10:48:33.026Z,18.20
2022-10-27T10:51:09.301Z,18.20
2022-10-27T10:53:43.522Z,18.20
2022-10-27T10:56:39.759Z,18.20
2022-10-27T10:59:13.852Z,18.20
2022-10-27T11:01:48.310Z,18.20
2022-10-27T11:04:22.127Z,18.20
2022-10-27T11:07:14.519Z,18.30
2022-10-27T11:10:22.126Z,18.20
2022-10-27T11:12:58.483Z,18.20
2022-10-27T11:15:59.822Z,18.30
2022-10-27T11:18:34.037Z,18.20
2022-10-27T11:21:06.609Z,18.20
2022-10-27T11:23:48.542Z,18.20
2022-10-27T11:26:24.605Z,18.30
2022-10-27T11:29:22.007Z,18.20
2022-10-27T11:32:13.791Z,18.20
2022-10-27T11:35:06.087Z,18.30
2022-10-27T11:37:47.965Z,18.20
2022-10-27T11:40:42.718Z,18.30
2022-10-27T11:43:31.654Z,18.30
2022-10-27T11:46:22.992Z,18.20
2022-10-27T11:49:08.011Z,18.20
2022-10-27T11:51:42.657Z,18.30
2022-10-27T11:56:53.339Z,18.20
2022-10-27T11:59:45.190Z,18.30
2022-10-27T12:02:46.105Z,18.20
2022-10-27T12:05:36.447Z,18.30
2022-10-27T12:08:34.353Z,18.30
2022-10-27T12:11:14.595Z,18.20
2022-10-27T12:13:59.513Z,18.30
2022-10-27T12:16:51.792Z,18.20
2022-10-27T12:19:25.648Z,18.20
2022-10-27T12:22:29.790Z,18.30
2022-10-27T12:25:23.103Z,18.20
2022-10-27T12:27:55.972Z,18.20
2022-10-27T12:30:26.648Z,18.20
2022-10-27T12:33:10.606Z,18.20
2022-10-27T12:36:05.261Z,18.20
2022-10-27T12:38:42.737Z,18.20
2022-10-27T12:41:30.418Z,18.20
2022-10-27T12:44:09.873Z,18.20
2022-10-27T12:47:03.626Z,18.20
2022-10-27T12:49:51.985Z,18.30
2022-10-27T12:52:26.766Z,18.20
2022-10-27T12:55:12.183Z,18.20
2022-10-27T12:58:24.306Z,18.20
2022-10-27T13:01:34.096Z,18.20
2022-10-27T13:04:34.172Z,18.20
2022-10-27T13:07:22.741Z,18.10
2022-10-27T13:10:16.832Z,18.20
2022-10-27T13:12:59.293Z,18.20
2022-10-27T13:15:47.710Z,18.20
2022-10-27T13:18:59.550Z,18.20
2022-10-27T13:21:38.882Z,18.20
2022-10-27T13:24:14.407Z,18.20
2022-10-27T13:27:28.400Z,18.20
2022-10-27T13:30:06.167Z,18.20
2022-10-27T13:32:51.601Z,18.20
2022-10-27T13:35:21.950Z,18.20
2022-10-27T13:38:00.738Z,18.20
2022-10-27T13:40:36.027Z,18.20
2022-10-27T13:43:24.529Z,18.20
2022-10-27T13:46:04.055Z,18.20
2022-10-27T13:48:41.533Z,18.20
2022-10-27T13:51:49.103Z,18.20
2022-10-27T13:54:56.055Z,18.10
2022-10-27T13:58:05.501Z,18.20
2022-10-27T14:01:18.087Z,18.20
2022-10-27T14:04:06.480Z,18.20
2022-10-27T14:06:42.120Z,18.20
2022-10-27T14:09:25.914Z,18.20
2022-10-27T14:11:57.764Z,18.20
2022-10-27T14:14:34.893Z,18.20
2022-10-27T14:17:42.733Z,18.10
2022-10-27T14:20:21.905Z,18.10
2022-10-27T14:23:09.746Z,18.20
2022-10-27T14:25:39.996Z,18.10
2022-10-27T14:28:29.971Z,18.10
2022-10-27T14:31:17.471Z,18.20
2022-10-27T14:33:49.449Z,18.20
2022-10-27T14:36:35.629Z,18.10
2022-10-27T14:39:14.893Z,18.20
2022-10-27T14:41:49.218Z,18.10
2022-10-27T14:44:34.488Z,18.20
2022-10-27T14:47:14.883Z,18.20
2022-10-27T14:49:50.956Z,18.10
2022-10-27T14:55:06.771Z,18.10
2022-10-27T14:57:38.263Z,18.20
2022-10-27T15:00:26.787Z,18.10
2022-10-27T15:02:58.482Z,18.20
2022-10-27T15:05:48.803Z,18.20
2022-10-27T15:08:31.683Z,18.20
2022-10-27T15:11:02.569Z,18.20
2022-10-27T15:13:35.967Z,18.20
2022-10-27T15:16:10.705Z,18.20
2022-10-27T15:18:44.316Z,18.20
2022-10-27T15:21:18.819Z,18.20
2022-10-27T15:23:50.251Z,18.20
2022-10-27T15:26:30.264Z,18.20
2022-10-27T15:29:03.829Z,18.20
2022-10-27T15:31:41.862Z,18.10
2022-10-27T15:34:33.324Z,18.20
2022-10-27T15:37:29.696Z,18.20
2022-10-27T15:40:30.586Z,18.20
2022-10-27T15:43:01.172Z,18.20
2022-10-27T15:45:46.334Z,18.20
2022-10-27T15:48:26.505Z,18.10
2022-10-27T15:51:08.033Z,18.20
2022-10-27T15:54:02.079Z,18.20
2022-10-27T15:56:39.345Z,18.20
2022-10-27T15:59:21.367Z,18.20
2022-10-27T16:01:55.868Z,18.10
2022-10-27T16:04:46.102Z,18.10
2022-10-27T16:07:22.089Z,18.20
2022-10-27T16:09:55.599Z,18.00
2022-10-27T16:12:51.902Z,18.10
2022-10-27T16:15:24.589Z,18.10
2022-10-27T16:17:58.854Z,18.10
2022-10-27T16:20:30.788Z,18.10
2022-10-27T16:23:19.496Z,18.20
2022-10-27T16:25:56.411Z,18.00
2022-10-27T16:28:28.869Z,18.10
2022-10-27T16:31:11.250Z,18.00
2022-10-27T16:33:41.757Z,18.00
2022-10-27T16:36:16.259Z,18.10
2022-10-27T16:38:46.553Z,18.10
2022-10-27T16:41:21.913Z,18.10
2022-10-27T16:43:58.239Z,18.10
2022-10-27T16:46:28.959Z,18.10
2022-10-27T16:48:59.137Z,18.10
2022-10-27T16:51:32.000Z,18.10
2022-10-27T16:54:02.060Z,18.00
2022-10-27T16:56:32.240Z,18.10
2022-10-27T16:59:08.301Z,18.00
2022-10-27T17:01:38.821Z,18.10
2022-10-27T17:04:09.101Z,18.10
2022-10-27T17:06:41.985Z,18.10
2022-10-27T17:09:15.742Z,18.00
2022-10-27T17:11:47.220Z,18.10
2022-10-27T17:14:17.808Z,18.00
2022-10-27T17:16:48.374Z,18.00
2022-10-27T17:19:18.403Z,18.10
2022-10-27T17:21:49.839Z,18.00
2022-10-27T17:24:19.923Z,18.00
2022-10-27T17:26:50.069Z,18.10
2022-10-27T17:29:20.037Z,17.90
2022-10-27T17:31:50.067Z,17.90
2022-10-27T17:34:28.742Z,17.90
2022-10-27T17:37:01.649Z,18.00
2022-10-27T17:39:38.030Z,18.00
2022-10-27T17:42:08.357Z,18.00
2022-10-27T17:44:38.596Z,17.90
2022-10-27T17:47:11.398Z,18.00
2022-10-27T17:49:41.990Z,18.00
2022-10-27T17:52:12.145Z,17.90
2022-10-27T17:54:46.128Z,18.00
2022-10-27T17:57:19.179Z,18.00
2022-10-27T17:59:49.458Z,17.90
2022-10-27T18:02:22.468Z,18.00
2022-10-27T18:04:54.402Z,18.00
2022-10-27T18:07:25.589Z,18.00
2022-10-27T18:09:55.845Z,18.00
2022-10-27T18:12:26.039Z,18.00
2022-10-27T18:15:03.491Z,17.90
2022-10-27T18:17:49.840Z,17.90
2022-10-27T18:20:26.182Z,18.00
2022-10-27T18:22:56.482Z,17.80
2022-10-27T18:25:32.293Z,18.00
2022-10-27T18:28:02.575Z,18.00
2022-10-27T18:30:32.559Z,18.00
2022-10-27T18:33:05.965Z,18.00
2022-10-27T18:35:36.200Z,18.00
2022-10-27T18:38:12.101Z,18.00
2022-10-27T18:40:42.376Z,17.90
2022-10-27T18:43:12.331Z,17.90
2022-10-27T18:45:43.414Z,17.80
2022-10-27T18:48:13.686Z,17.90
2022-10-27T18:50:49.870Z,17.90
2022-10-27T18:53:26.041Z,17.90
2022-10-27T18:55:56.399Z,17.90
2022-10-27T18:58:32.763Z,17.90
2022-10-27T19:01:10.655Z,17.80
2022-10-27T19:03:41.983Z,17.90
2022-10-27T19:06:13.190Z,17.90
2022-10-27T19:08:49.418Z,17.80
2022-10-27T19:11:23.710Z,17.90
2022-10-27T19:13:59.949Z,18.00
2022-10-27T19:16:37.900Z,17.80
2022-10-27T19:19:08.376Z,17.70
2022-10-27T19:21:38.489Z,17.80
2022-10-27T19:24:12.627Z,17.90
2022-10-27T19:26:42.923Z,17.90
2022-10-27T19:29:13.187Z,17.90
2022-10-27T19:31:43.523Z,17.80
2022-10-27T19:34:14.142Z,17.80
2022-10-27T19:36:52.405Z,17.80
2022-10-27T19:39:22.436Z,17.80
2022-10-27T19:41:55.557Z,17.80
2022-10-27T19:44:28.653Z,17.80
2022-10-27T19:47:11.176Z,17.80
2022-10-27T19:49:41.437Z,17.90
2022-10-27T19:52:11.694Z,17.70
2022-10-27T19:54:42.126Z,17.80
2022-10-27T19:57:13.929Z,17.80
2022-10-27T19:59:48.233Z,17.90
2022-10-27T20:02:24.933Z,17.90
2022-10-27T20:05:01.501Z,17.70
2022-10-27T20:07:37.616Z,17.60
2022-10-27T20:10:08.219Z,17.70
2022-10-27T20:12:38.520Z,17.70
2022-10-27T20:15:10.363Z,17.70
2022-10-27T20:17:40.645Z,17.80
2022-10-27T20:20:11.159Z,17.80
2022-10-27T20:22:41.930Z,17.80
2022-10-27T20:25:18.229Z,17.60
2022-10-27T20:27:55.055Z,17.80
2022-10-27T20:30:25.450Z,17.70
2022-10-27T20:32:56.089Z,17.80
2022-10-27T20:35:26.433Z,17.70
2022-10-27T20:38:02.420Z,17.70
2022-10-27T20:40:33.989Z,17.70
2022-10-27T20:43:04.425Z,17.60
2022-10-27T20:45:47.530Z,17.60
2022-10-27T20:48:26.816Z,17.80
2022-10-27T20:51:04.839Z,17.60
2022-10-27T20:53:38.613Z,17.60
2022-10-27T20:56:09.778Z,17.70
2022-10-27T20:58:41.927Z,17.60
2022-10-27T21:01:36.302Z,17.60
2022-10-27T21:04:10.298Z,17.50
2022-10-27T21:06:45.445Z,17.60
2022-10-27T21:09:17.041Z,17.70
2022-10-27T21:11:47.860Z,17.50
2022-10-27T21:14:19.021Z,17.70
2022-10-27T21:16:51.891Z,17.70
2022-10-27T21:19:22.532Z,17.70
2022-10-27T21:21:53.753Z,17.40
2022-10-27T21:24:30.725Z,17.80
2022-10-27T21:27:02.957Z,17.50
2022-10-27T21:29:35.767Z,17.60
2022-10-27T21:32:06.957Z,17.50
2022-10-27T21:34:40.111Z,17.50
2022-10-27T21:37:16.465Z,17.50
2022-10-27T21:39:52.893Z,17.60
2022-10-27T21:42:37.676Z,17.60
2022-10-27T21:45:12.737Z,17.60
2022-10-27T21:47:49.578Z,17.60
2022-10-27T21:50:22.699Z,17.60
2022-10-27T21:52:53.969Z,17.50
2022-10-27T21:55:30.725Z,17.70
2022-10-27T21:58:00.788Z,17.50
2022-10-27T22:00:30.866Z,17.60
2022-10-27T22:03:01.089Z,17.60
2022-10-27T22:05:37.347Z,17.50
2022-10-27T22:08:07.749Z,17.40
2022-10-27T22:10:38.936Z,17.60
2022-10-27T22:13:09.222Z,17.40
2022-10-27T22:15:39.444Z,17.50
2022-10-27T22:18:09.436Z,17.30
2022-10-27T22:20:39.412Z,17.70
2022-10-27T22:23:09.759Z,17.70
2022-10-27T22:25:43.169Z,17.50
2022-10-27T22:28:16.331Z,17.50
2022-10-27T22:30:46.600Z,17.60
2022-10-27T22:33:16.537Z,17.40
2022-10-27T22:35:46.507Z,17.50
2022-10-27T22:38:16.437Z,17.50
2022-10-27T22:40:50.102Z,17.50
2022-10-27T22:43:20.223Z,17.40
2022-10-27T22:45:58.897Z,17.60
2022-10-27T22:48:29.368Z,17.30
2022-10-27T22:51:03.693Z,17.50
2022-10-27T22:53:40.360Z,17.40
2022-10-27T22:56:22.156Z,17.50
2022-10-27T22:58:54.030Z,17.60
2022-10-27T23:01:31.672Z,17.40
2022-10-27T23:04:03.940Z,17.50
2022-10-27T23:06:37.747Z,17.40
2022-10-27T23:09:18.570Z,17.60
2022-10-27T23:11:48.974Z,17.60
2022-10-27T23:14:19.285Z,17.40
2022-10-27T23:16:50.092Z,17.50
2022-10-27T23:19:20.196Z,17.50
2022-10-27T23:21:56.103Z,17.40
2022-10-27T23:24:30.024Z,17.50
2022-10-27T23:27:00.263Z,17.50
2022-10-27T23:29:36.693Z,17.60
2022-10-27T23:32:07.672Z,17.40
2022-10-27T23:34:38.516Z,17.40
2022-10-27T23:37:08.797Z,17.50
2022-10-27T23:39:41.664Z,17.50
2022-10-27T23:42:14.035Z,17.40
2022-10-27T23:44:50.096Z,17.40
2022-10-27T23:47:36.774Z,17.30
2022-10-27T23:50:21.968Z,17.40
2022-10-27T23:52:57.990Z,17.40
2022-10-27T23:55:28.666Z,17.40
2022-10-27T23:57:59.605Z,17.60
